sensor_id;sensor_type;location;lat;lon;timestamp;pressure;altitude;pressure_sealevel;temperature;humidity
62592;BME280;48659;41.622;2.276;2023-03-17T00:00:41;99945.92;;;6.41;58.60
62592;BME280;48659;41.622;2.276;2023-03-17T00:03:10;99932.23;;;7.44;55.79
62592;BME280;48659;41.622;2.276;2023-03-17T00:05:43;99929.19;;;7.31;55.71
62592;BME280;48659;41.622;2.276;2023-03-17T00:08:17;99925.75;;;8.00;54.46
62592;BME280;48659;41.622;2.276;2023-03-17T00:10:46;99928.64;;;6.50;56.63
62592;BME280;48659;41.622;2.276;2023-03-17T00:13:14;99927.38;;;7.56;54.63
62592;BME280;48659;41.622;2.276;2023-03-17T00:15:42;99925.57;;;7.39;55.74
62592;BME280;48659;41.622;2.276;2023-03-17T00:18:13;99920.48;;;7.14;56.56
62592;BME280;48659;41.622;2.276;2023-03-17T00:20:40;99922.07;;;7.03;57.46
62592;BME280;48659;41.622;2.276;2023-03-17T00:23:14;99919.56;;;6.80;56.51
62592;BME280;48659;41.622;2.276;2023-03-17T00:25:43;99915.80;;;7.76;54.95
62592;BME280;48659;41.622;2.276;2023-03-17T00:28:15;99921.10;;;6.60;57.72
62592;BME280;48659;41.622;2.276;2023-03-17T00:30:44;99908.55;;;7.89;55.13
62592;BME280;48659;41.622;2.276;2023-03-17T00:33:12;99912.65;;;7.99;54.69
62592;BME280;48659;41.622;2.276;2023-03-17T00:35:40;99912.47;;;8.33;54.70
62592;BME280;48659;41.622;2.276;2023-03-17T00:38:10;99914.21;;;7.68;56.00
62592;BME280;48659;41.622;2.276;2023-03-17T00:40:41;99913.42;;;7.30;58.55
62592;BME280;48659;41.622;2.276;2023-03-17T00:43:08;99915.36;;;8.05;56.23
62592;BME280;48659;41.622;2.276;2023-03-17T00:45:35;99919.34;;;7.24;57.89
62592;BME280;48659;41.622;2.276;2023-03-17T00:48:12;99921.27;;;6.03;58.58
62592;BME280;48659;41.622;2.276;2023-03-17T00:50:39;99924.22;;;7.33;58.45
62592;BME280;48659;41.622;2.276;2023-03-17T00:53:10;99925.12;;;6.47;58.07
62592;BME280;48659;41.622;2.276;2023-03-17T00:55:38;99921.76;;;7.54;57.49
62592;BME280;48659;41.622;2.276;2023-03-17T00:58:11;99925.90;;;8.11;56.93
62592;BME280;48659;41.622;2.276;2023-03-17T01:00:39;99922.42;;;7.70;56.93
62592;BME280;48659;41.622;2.276;2023-03-17T01:03:09;99912.91;;;8.87;53.80
62592;BME280;48659;41.622;2.276;2023-03-17T01:05:38;99915.98;;;7.11;57.95
62592;BME280;48659;41.622;2.276;2023-03-17T01:08:07;99918.24;;;6.82;60.50
62592;BME280;48659;41.622;2.276;2023-03-17T01:10:35;99916.70;;;7.03;59.00
62592;BME280;48659;41.622;2.276;2023-03-17T01:13:04;99914.49;;;7.97;57.01
62592;BME280;48659;41.622;2.276;2023-03-17T01:15:33;99912.69;;;7.65;59.15
62592;BME280;48659;41.622;2.276;2023-03-17T01:18:01;99906.44;;;6.62;58.71
62592;BME280;48659;41.622;2.276;2023-03-17T01:20:30;99904.42;;;8.50;55.78
62592;BME280;48659;41.622;2.276;2023-03-17T01:22:59;99905.21;;;8.42;55.65
62592;BME280;48659;41.622;2.276;2023-03-17T01:25:27;99899.06;;;8.33;55.74
62592;BME280;48659;41.622;2.276;2023-03-17T01:27:56;99900.47;;;8.06;55.99
62592;BME280;48659;41.622;2.276;2023-03-17T01:30:26;99894.37;;;8.84;55.27
62592;BME280;48659;41.622;2.276;2023-03-17T01:32:55;99898.79;;;6.98;59.05
62592;BME280;48659;41.622;2.276;2023-03-17T01:35:24;99899.72;;;7.12;59.00
62592;BME280;48659;41.622;2.276;2023-03-17T01:37:52;99899.13;;;7.39;57.52
62592;BME280;48659;41.622;2.276;2023-03-17T01:40:22;99894.34;;;8.82;54.18
62592;BME280;48659;41.622;2.276;2023-03-17T01:42:52;99901.52;;;7.33;56.50
62592;BME280;48659;41.622;2.276;2023-03-17T01:46:27;99904.88;;;7.82;58.19
62592;BME280;48659;41.622;2.276;2023-03-17T01:49:01;99895.93;;;7.86;56.13
62592;BME280;48659;41.622;2.276;2023-03-17T01:51:32;99895.65;;;7.16;58.45
62592;BME280;48659;41.622;2.276;2023-03-17T01:54:06;99885.63;;;7.29;57.21
62592;BME280;48659;41.622;2.276;2023-03-17T01:56:35;99884.19;;;8.30;57.24
62592;BME280;48659;41.622;2.276;2023-03-17T01:59:06;99874.67;;;8.56;53.35
62592;BME280;48659;41.622;2.276;2023-03-17T02:01:41;99871.49;;;9.38;53.66
62592;BME280;48659;41.622;2.276;2023-03-17T02:04:10;99878.48;;;7.94;56.00
62592;BME280;48659;41.622;2.276;2023-03-17T02:06:38;99879.24;;;8.50;55.07
62592;BME280;48659;41.622;2.276;2023-03-17T02:09:06;99876.27;;;8.16;54.59
62592;BME280;48659;41.622;2.276;2023-03-17T02:11:34;99879.10;;;8.43;55.57
62592;BME280;48659;41.622;2.276;2023-03-17T02:14:02;99880.58;;;7.83;55.05
62592;BME280;48659;41.622;2.276;2023-03-17T02:16:30;99882.48;;;10.15;51.45
62592;BME280;48659;41.622;2.276;2023-03-17T02:18:57;99881.81;;;9.72;51.18
62592;BME280;48659;41.622;2.276;2023-03-17T02:21:30;99879.29;;;9.36;53.99
62592;BME280;48659;41.622;2.276;2023-03-17T02:24:02;99874.11;;;8.00;55.70
62592;BME280;48659;41.622;2.276;2023-03-17T02:26:34;99882.03;;;8.29;55.74
62592;BME280;48659;41.622;2.276;2023-03-17T02:29:01;99880.11;;;7.46;54.69
62592;BME280;48659;41.622;2.276;2023-03-17T02:31:29;99877.55;;;8.13;55.68
62592;BME280;48659;41.622;2.276;2023-03-17T02:33:57;99872.83;;;8.45;53.11
62592;BME280;48659;41.622;2.276;2023-03-17T02:36:26;99868.16;;;7.71;55.43
62592;BME280;48659;41.622;2.276;2023-03-17T02:38:53;99867.97;;;6.98;56.70
62592;BME280;48659;41.622;2.276;2023-03-17T02:41:21;99867.29;;;7.23;57.50
62592;BME280;48659;41.622;2.276;2023-03-17T02:43:52;99858.52;;;7.73;55.23
62592;BME280;48659;41.622;2.276;2023-03-17T02:46:19;99862.53;;;7.87;55.12
62592;BME280;48659;41.622;2.276;2023-03-17T02:48:47;99860.32;;;7.90;53.81
62592;BME280;48659;41.622;2.276;2023-03-17T02:51:15;99862.73;;;7.55;53.71
62592;BME280;48659;41.622;2.276;2023-03-17T02:53:42;99861.58;;;8.70;52.30
62592;BME280;48659;41.622;2.276;2023-03-17T02:56:10;99864.06;;;7.40;56.42
62592;BME280;48659;41.622;2.276;2023-03-17T02:58:39;99862.50;;;6.63;57.48
62592;BME280;48659;41.622;2.276;2023-03-17T03:01:07;99860.01;;;7.55;57.89
62592;BME280;48659;41.622;2.276;2023-03-17T03:03:34;99852.48;;;8.44;54.72
62592;BME280;48659;41.622;2.276;2023-03-17T03:06:02;99851.86;;;7.44;56.02
62592;BME280;48659;41.622;2.276;2023-03-17T03:08:30;99845.34;;;7.47;56.89
62592;BME280;48659;41.622;2.276;2023-03-17T03:10:57;99846.18;;;6.86;59.75
62592;BME280;48659;41.622;2.276;2023-03-17T03:13:25;99845.82;;;6.60;58.99
62592;BME280;48659;41.622;2.276;2023-03-17T03:15:52;99847.49;;;6.16;61.70
62592;BME280;48659;41.622;2.276;2023-03-17T03:18:19;99837.20;;;6.39;58.97
62592;BME280;48659;41.622;2.276;2023-03-17T03:20:47;99839.78;;;7.22;58.03
62592;BME280;48659;41.622;2.276;2023-03-17T03:23:17;99839.03;;;6.59;57.49
62592;BME280;48659;41.622;2.276;2023-03-17T03:25:45;99832.45;;;7.80;56.31
62592;BME280;48659;41.622;2.276;2023-03-17T03:28:12;99840.73;;;6.90;57.72
62592;BME280;48659;41.622;2.276;2023-03-17T03:30:40;99842.25;;;7.64;57.25
62592;BME280;48659;41.622;2.276;2023-03-17T03:33:12;99843.04;;;6.78;59.07
62592;BME280;48659;41.622;2.276;2023-03-17T03:35:40;99837.17;;;6.91;57.70
62592;BME280;48659;41.622;2.276;2023-03-17T03:38:24;99832.61;;;7.93;55.45
62592;BME280;48659;41.622;2.276;2023-03-17T03:40:51;99826.68;;;8.35;54.05
62592;BME280;48659;41.622;2.276;2023-03-17T03:43:19;99826.70;;;8.25;52.92
62592;BME280;48659;41.622;2.276;2023-03-17T03:45:47;99830.68;;;8.17;53.35
62592;BME280;48659;41.622;2.276;2023-03-17T03:48:14;99839.63;;;6.35;56.54
62592;BME280;48659;41.622;2.276;2023-03-17T03:50:42;99841.35;;;6.90;57.34
62592;BME280;48659;41.622;2.276;2023-03-17T03:53:16;99839.78;;;7.41;55.37
62592;BME280;48659;41.622;2.276;2023-03-17T03:55:45;99842.83;;;7.92;54.69
62592;BME280;48659;41.622;2.276;2023-03-17T03:58:16;99841.29;;;7.70;53.26
62592;BME280;48659;41.622;2.276;2023-03-17T04:00:43;99844.64;;;9.27;51.55
62592;BME280;48659;41.622;2.276;2023-03-17T04:03:11;99846.31;;;8.91;52.05
62592;BME280;48659;41.622;2.276;2023-03-17T04:05:39;99844.45;;;9.06;51.94
62592;BME280;48659;41.622;2.276;2023-03-17T04:08:07;99845.63;;;8.13;53.55
62592;BME280;48659;41.622;2.276;2023-03-17T04:10:34;99851.49;;;7.58;55.08
62592;BME280;48659;41.622;2.276;2023-03-17T04:13:02;99850.67;;;7.10;56.79
62592;BME280;48659;41.622;2.276;2023-03-17T04:15:29;99848.75;;;6.82;58.65
62592;BME280;48659;41.622;2.276;2023-03-17T04:17:57;99842.91;;;6.65;59.88
62592;BME280;48659;41.622;2.276;2023-03-17T04:20:24;99856.66;;;5.56;63.03
62592;BME280;48659;41.622;2.276;2023-03-17T04:22:51;99849.23;;;6.72;59.28
62592;BME280;48659;41.622;2.276;2023-03-17T04:25:19;99855.25;;;5.26;62.74
62592;BME280;48659;41.622;2.276;2023-03-17T04:27:46;99844.00;;;6.79;59.71
62592;BME280;48659;41.622;2.276;2023-03-17T04:30:15;99843.05;;;6.61;59.41
62592;BME280;48659;41.622;2.276;2023-03-17T04:32:42;99843.47;;;7.37;58.57
62592;BME280;48659;41.622;2.276;2023-03-17T04:35:13;99846.95;;;6.75;59.16
62592;BME280;48659;41.622;2.276;2023-03-17T04:37:41;99851.19;;;5.77;60.64
62592;BME280;48659;41.622;2.276;2023-03-17T04:40:12;99852.76;;;7.32;58.42
62592;BME280;48659;41.622;2.276;2023-03-17T04:42:39;99857.54;;;5.78;61.01
62592;BME280;48659;41.622;2.276;2023-03-17T04:45:11;99849.74;;;7.18;58.44
62592;BME280;48659;41.622;2.276;2023-03-17T04:47:38;99847.83;;;7.83;55.53
62592;BME280;48659;41.622;2.276;2023-03-17T04:50:06;99849.95;;;6.81;58.77
62592;BME280;48659;41.622;2.276;2023-03-17T04:52:33;99850.00;;;6.14;60.71
62592;BME280;48659;41.622;2.276;2023-03-17T04:55:00;99852.51;;;5.95;62.27
62592;BME280;48659;41.622;2.276;2023-03-17T04:57:28;99854.11;;;5.77;62.33
62592;BME280;48659;41.622;2.276;2023-03-17T04:59:55;99848.12;;;6.23;60.30
62592;BME280;48659;41.622;2.276;2023-03-17T05:02:23;99843.65;;;7.16;55.93
62592;BME280;48659;41.622;2.276;2023-03-17T05:04:51;99840.50;;;6.32;59.23
62592;BME280;48659;41.622;2.276;2023-03-17T05:07:18;99839.96;;;6.20;59.46
62592;BME280;48659;41.622;2.276;2023-03-17T05:09:45;99837.92;;;7.33;57.53
62592;BME280;48659;41.622;2.276;2023-03-17T05:12:16;99838.03;;;7.17;58.85
62592;BME280;48659;41.622;2.276;2023-03-17T05:14:44;99832.24;;;7.03;56.44
62592;BME280;48659;41.622;2.276;2023-03-17T05:17:16;99833.47;;;6.28;57.17
62592;BME280;48659;41.622;2.276;2023-03-17T05:19:44;99834.32;;;6.64;58.10
62592;BME280;48659;41.622;2.276;2023-03-17T05:22:17;99830.56;;;7.97;53.40
62592;BME280;48659;41.622;2.276;2023-03-17T05:24:44;99833.98;;;7.93;54.57
62592;BME280;48659;41.622;2.276;2023-03-17T05:27:17;99835.63;;;8.33;53.04
62592;BME280;48659;41.622;2.276;2023-03-17T05:29:44;99837.24;;;7.15;54.04
62592;BME280;48659;41.622;2.276;2023-03-17T05:32:12;99837.76;;;7.81;52.82
62592;BME280;48659;41.622;2.276;2023-03-17T05:34:39;99837.72;;;8.10;52.97
62592;BME280;48659;41.622;2.276;2023-03-17T05:37:07;99833.34;;;9.56;51.61
62592;BME280;48659;41.622;2.276;2023-03-17T05:39:35;99834.39;;;9.60;50.08
62592;BME280;48659;41.622;2.276;2023-03-17T05:42:02;99833.88;;;9.39;50.07
62592;BME280;48659;41.622;2.276;2023-03-17T05:44:30;99835.79;;;8.57;49.57
62592;BME280;48659;41.622;2.276;2023-03-17T05:46:58;99838.09;;;7.93;53.31
62592;BME280;48659;41.622;2.276;2023-03-17T05:49:26;99847.34;;;5.35;58.18
62592;BME280;48659;41.622;2.276;2023-03-17T05:51:54;99847.96;;;7.08;57.06
62592;BME280;48659;41.622;2.276;2023-03-17T05:54:22;99848.53;;;6.34;57.06
62592;BME280;48659;41.622;2.276;2023-03-17T05:56:49;99848.06;;;8.45;53.66
62592;BME280;48659;41.622;2.276;2023-03-17T05:59:17;99851.27;;;7.90;55.24
62592;BME280;48659;41.622;2.276;2023-03-17T06:01:45;99847.05;;;7.84;53.98
62592;BME280;48659;41.622;2.276;2023-03-17T06:04:17;99846.59;;;8.20;51.14
62592;BME280;48659;41.622;2.276;2023-03-17T06:06:44;99849.61;;;8.98;51.67
62592;BME280;48659;41.622;2.276;2023-03-17T06:09:12;99857.49;;;7.81;53.95
62592;BME280;48659;41.622;2.276;2023-03-17T06:11:40;99852.06;;;8.03;52.86
62592;BME280;48659;41.622;2.276;2023-03-17T06:14:07;99848.26;;;8.77;51.75
62592;BME280;48659;41.622;2.276;2023-03-17T06:16:35;99847.30;;;8.93;50.71
62592;BME280;48659;41.622;2.276;2023-03-17T06:19:02;99851.71;;;9.21;51.03
62592;BME280;48659;41.622;2.276;2023-03-17T06:21:30;99858.75;;;8.00;52.90
62592;BME280;48659;41.622;2.276;2023-03-17T06:23:57;99854.89;;;8.82;50.40
62592;BME280;48659;41.622;2.276;2023-03-17T06:26:24;99851.35;;;8.85;51.41
62592;BME280;48659;41.622;2.276;2023-03-17T06:28:52;99852.58;;;8.84;51.82
62592;BME280;48659;41.622;2.276;2023-03-17T06:31:19;99854.61;;;8.33;50.79
62592;BME280;48659;41.622;2.276;2023-03-17T06:33:47;99852.42;;;8.49;52.19
62592;BME280;48659;41.622;2.276;2023-03-17T06:36:21;99856.74;;;8.00;53.30
62592;BME280;48659;41.622;2.276;2023-03-17T06:38:48;99858.05;;;7.18;55.26
62592;BME280;48659;41.622;2.276;2023-03-17T06:41:17;99857.21;;;7.49;56.73
62592;BME280;48659;41.622;2.276;2023-03-17T06:43:44;99857.04;;;7.97;53.17
62592;BME280;48659;41.622;2.276;2023-03-17T06:46:18;99853.40;;;8.09;51.94
62592;BME280;48659;41.622;2.276;2023-03-17T06:48:45;99857.43;;;9.46;49.00
62592;BME280;48659;41.622;2.276;2023-03-17T06:51:16;99860.03;;;6.73;54.15
62592;BME280;48659;41.622;2.276;2023-03-17T06:53:44;99862.63;;;7.27;54.57
62592;BME280;48659;41.622;2.276;2023-03-17T06:56:19;99870.77;;;6.19;58.43
62592;BME280;48659;41.622;2.276;2023-03-17T06:58:47;99867.06;;;6.12;58.78
62592;BME280;48659;41.622;2.276;2023-03-17T07:01:18;99864.53;;;6.36;57.26
62592;BME280;48659;41.622;2.276;2023-03-17T07:03:45;99865.49;;;6.60;58.25
62592;BME280;48659;41.622;2.276;2023-03-17T07:06:13;99868.58;;;6.83;56.47
62592;BME280;48659;41.622;2.276;2023-03-17T07:08:41;99869.76;;;6.95;56.90
62592;BME280;48659;41.622;2.276;2023-03-17T07:11:22;99869.13;;;7.18;57.02
62592;BME280;48659;41.622;2.276;2023-03-17T07:13:50;99863.49;;;8.92;52.90
62592;BME280;48659;41.622;2.276;2023-03-17T07:16:18;99860.38;;;8.15;52.26
62592;BME280;48659;41.622;2.276;2023-03-17T07:18:46;99864.22;;;8.41;52.64
62592;BME280;48659;41.622;2.276;2023-03-17T07:21:17;99871.96;;;7.76;53.64
62592;BME280;48659;41.622;2.276;2023-03-17T07:23:44;99876.46;;;8.66;51.75
62592;BME280;48659;41.622;2.276;2023-03-17T07:26:18;99884.86;;;7.11;54.63
62592;BME280;48659;41.622;2.276;2023-03-17T07:28:45;99883.56;;;8.34;53.95
62592;BME280;48659;41.622;2.276;2023-03-17T07:31:16;99887.78;;;7.97;55.66
62592;BME280;48659;41.622;2.276;2023-03-17T07:33:44;99888.63;;;6.99;58.51
62592;BME280;48659;41.622;2.276;2023-03-17T07:36:17;99890.27;;;7.67;55.51
62592;BME280;48659;41.622;2.276;2023-03-17T07:38:44;99893.11;;;7.39;56.24
62592;BME280;48659;41.622;2.276;2023-03-17T07:41:17;99894.77;;;7.26;55.32
62592;BME280;48659;41.622;2.276;2023-03-17T07:43:45;99896.81;;;7.33;57.47
62592;BME280;48659;41.622;2.276;2023-03-17T07:46:18;99895.36;;;7.44;57.11
62592;BME280;48659;41.622;2.276;2023-03-17T07:48:46;99893.78;;;7.61;59.36
62592;BME280;48659;41.622;2.276;2023-03-17T07:51:19;99889.20;;;7.75;55.80
62592;BME280;48659;41.622;2.276;2023-03-17T07:53:48;99893.65;;;8.52;54.06
62592;BME280;48659;41.622;2.276;2023-03-17T07:56:17;99896.87;;;8.15;53.30
62592;BME280;48659;41.622;2.276;2023-03-17T07:58:44;99897.18;;;10.23;50.48
62592;BME280;48659;41.622;2.276;2023-03-17T08:01:17;99899.20;;;8.38;53.57
62592;BME280;48659;41.622;2.276;2023-03-17T08:03:45;99899.69;;;9.05;53.15
62592;BME280;48659;41.622;2.276;2023-03-17T08:06:17;99896.36;;;9.28;51.45
62592;BME280;48659;41.622;2.276;2023-03-17T08:08:44;99891.22;;;8.62;53.42
62592;BME280;48659;41.622;2.276;2023-03-17T08:11:17;99891.71;;;9.27;52.54
62592;BME280;48659;41.622;2.276;2023-03-17T08:13:44;99888.68;;;10.66;50.90
62592;BME280;48659;41.622;2.276;2023-03-17T08:16:17;99894.60;;;9.73;51.65
62592;BME280;48659;41.622;2.276;2023-03-17T08:18:45;99892.94;;;11.15;48.86
62592;BME280;48659;41.622;2.276;2023-03-17T08:21:18;99900.34;;;9.81;50.81
62592;BME280;48659;41.622;2.276;2023-03-17T08:23:45;99899.33;;;10.02;51.17
62592;BME280;48659;41.622;2.276;2023-03-17T08:26:18;99898.82;;;10.35;49.90
62592;BME280;48659;41.622;2.276;2023-03-17T08:28:46;99894.41;;;11.28;48.44
62592;BME280;48659;41.622;2.276;2023-03-17T08:31:18;99892.74;;;11.81;47.40
62592;BME280;48659;41.622;2.276;2023-03-17T08:33:47;99887.69;;;12.47;47.26
62592;BME280;48659;41.622;2.276;2023-03-17T08:36:22;99893.83;;;11.44;49.22
62592;BME280;48659;41.622;2.276;2023-03-17T08:38:49;99891.27;;;12.11;50.24
62592;BME280;48659;41.622;2.276;2023-03-17T08:41:19;99887.74;;;10.89;51.65
62592;BME280;48659;41.622;2.276;2023-03-17T08:43:47;99887.19;;;10.40;52.48
62592;BME280;48659;41.622;2.276;2023-03-17T08:46:21;99887.13;;;12.06;50.28
62592;BME280;48659;41.622;2.276;2023-03-17T08:48:50;99883.63;;;13.24;47.67
62592;BME280;48659;41.622;2.276;2023-03-17T08:51:18;99885.20;;;12.21;49.77
62592;BME280;48659;41.622;2.276;2023-03-17T08:53:46;99885.18;;;12.86;50.83
62592;BME280;48659;41.622;2.276;2023-03-17T08:56:17;99889.74;;;12.14;52.72
62592;BME280;48659;41.622;2.276;2023-03-17T08:58:45;99887.87;;;11.14;55.00
62592;BME280;48659;41.622;2.276;2023-03-17T09:01:18;99884.49;;;12.62;51.70
62592;BME280;48659;41.622;2.276;2023-03-17T09:03:46;99889.15;;;12.37;53.96
62592;BME280;48659;41.622;2.276;2023-03-17T09:06:17;99889.64;;;11.70;54.62
62592;BME280;48659;41.622;2.276;2023-03-17T09:08:44;99882.14;;;13.16;51.09
62592;BME280;48659;41.622;2.276;2023-03-17T09:11:19;99880.04;;;12.48;52.55
62592;BME280;48659;41.622;2.276;2023-03-17T09:13:47;99884.44;;;12.29;53.36
62592;BME280;48659;41.622;2.276;2023-03-17T09:16:20;99884.14;;;11.95;54.26
62592;BME280;48659;41.622;2.276;2023-03-17T09:18:48;99887.54;;;11.44;55.42
62592;BME280;48659;41.622;2.276;2023-03-17T09:21:18;99882.76;;;13.38;52.48
62592;BME280;48659;41.622;2.276;2023-03-17T09:23:46;99887.16;;;13.49;51.58
62592;BME280;48659;41.622;2.276;2023-03-17T09:26:14;99892.60;;;11.84;54.39
62592;BME280;48659;41.622;2.276;2023-03-17T09:28:42;99900.69;;;11.56;55.20
62592;BME280;48659;41.622;2.276;2023-03-17T09:31:17;99900.09;;;12.09;52.77
62592;BME280;48659;41.622;2.276;2023-03-17T09:33:44;99899.46;;;13.38;52.05
62592;BME280;48659;41.622;2.276;2023-03-17T09:36:11;99890.26;;;12.65;52.25
62592;BME280;48659;41.622;2.276;2023-03-17T09:38:39;99886.92;;;13.91;48.94
62592;BME280;48659;41.622;2.276;2023-03-17T09:41:28;99889.08;;;14.34;49.56
62592;BME280;48659;41.622;2.276;2023-03-17T09:44:06;99891.04;;;12.75;51.85
62592;BME280;48659;41.622;2.276;2023-03-17T09:46:55;99890.66;;;15.19;46.93
62592;BME280;48659;41.622;2.276;2023-03-17T09:49:37;99898.32;;;13.59;48.11
62592;BME280;48659;41.622;2.276;2023-03-17T09:52:23;99891.86;;;14.40;48.20
62592;BME280;48659;41.622;2.276;2023-03-17T09:54:52;99888.23;;;13.13;51.76
62592;BME280;48659;41.622;2.276;2023-03-17T09:57:23;99891.90;;;13.64;50.85
62592;BME280;48659;41.622;2.276;2023-03-17T09:59:58;99888.60;;;14.21;49.24
62592;BME280;48659;41.622;2.276;2023-03-17T10:02:29;99890.78;;;12.89;50.58
62592;BME280;48659;41.622;2.276;2023-03-17T10:04:57;99887.05;;;12.69;54.46
62592;BME280;48659;41.622;2.276;2023-03-17T10:07:31;99886.52;;;12.21;53.44
62592;BME280;48659;41.622;2.276;2023-03-17T10:10:21;99880.40;;;13.89;51.17
62592;BME280;48659;41.622;2.276;2023-03-17T10:12:56;99879.08;;;12.57;52.47
62592;BME280;48659;41.622;2.276;2023-03-17T10:15:33;99882.26;;;13.02;50.94
62592;BME280;48659;41.622;2.276;2023-03-17T10:18:15;99883.21;;;14.82;48.62
62592;BME280;48659;41.622;2.276;2023-03-17T10:20:50;99880.98;;;14.05;47.83
62592;BME280;48659;41.622;2.276;2023-03-17T10:23:24;99877.90;;;13.85;48.67
62592;BME280;48659;41.622;2.276;2023-03-17T10:25:55;99869.23;;;15.20;45.51
62592;BME280;48659;41.622;2.276;2023-03-17T10:28:27;99864.90;;;15.66;43.26
62592;BME280;48659;41.622;2.276;2023-03-17T10:30:57;99864.68;;;14.65;45.18
62592;BME280;48659;41.622;2.276;2023-03-17T10:33:28;99866.44;;;13.16;47.59
62592;BME280;48659;41.622;2.276;2023-03-17T10:35:55;99866.86;;;13.58;48.91
62592;BME280;48659;41.622;2.276;2023-03-17T10:38:23;99859.30;;;14.40;47.47
62592;BME280;48659;41.622;2.276;2023-03-17T10:40:56;99856.66;;;14.56;46.87
62592;BME280;48659;41.622;2.276;2023-03-17T10:43:28;99854.29;;;14.30;45.12
62592;BME280;48659;41.622;2.276;2023-03-17T10:45:59;99857.23;;;13.12;48.42
62592;BME280;48659;41.622;2.276;2023-03-17T10:48:28;99853.39;;;13.32;48.37
62592;BME280;48659;41.622;2.276;2023-03-17T10:50:57;99849.73;;;14.07;49.18
62592;BME280;48659;41.622;2.276;2023-03-17T10:53:26;99849.30;;;13.06;48.17
62592;BME280;48659;41.622;2.276;2023-03-17T10:55:57;99851.16;;;14.25;47.38
62592;BME280;48659;41.622;2.276;2023-03-17T10:58:35;99842.34;;;14.17;46.56
62592;BME280;48659;41.622;2.276;2023-03-17T11:01:06;99836.41;;;17.13;41.60
62592;BME280;48659;41.622;2.276;2023-03-17T11:03:37;99835.15;;;13.89;45.23
62592;BME280;48659;41.622;2.276;2023-03-17T11:06:08;99841.63;;;14.65;46.18
62592;BME280;48659;41.622;2.276;2023-03-17T11:08:48;99844.03;;;13.91;46.22
62592;BME280;48659;41.622;2.276;2023-03-17T11:11:23;99840.43;;;14.36;47.15
62592;BME280;48659;41.622;2.276;2023-03-17T11:13:50;99842.15;;;13.53;48.21
62592;BME280;48659;41.622;2.276;2023-03-17T11:16:21;99845.91;;;13.91;48.22
62592;BME280;48659;41.622;2.276;2023-03-17T11:18:53;99850.92;;;13.72;49.33
62592;BME280;48659;41.622;2.276;2023-03-17T11:21:26;99851.64;;;13.27;48.89
62592;BME280;48659;41.622;2.276;2023-03-17T11:23:59;99858.84;;;13.69;49.46
62592;BME280;48659;41.622;2.276;2023-03-17T11:26:43;99855.03;;;13.26;48.35
62592;BME280;48659;41.622;2.276;2023-03-17T11:29:25;99854.79;;;13.17;51.66
62592;BME280;48659;41.622;2.276;2023-03-17T11:32:00;99860.10;;;13.10;51.84
62592;BME280;48659;41.622;2.276;2023-03-17T11:34:44;99861.19;;;12.05;51.64
62592;BME280;48659;41.622;2.276;2023-03-17T11:37:27;99866.49;;;13.55;51.06
62592;BME280;48659;41.622;2.276;2023-03-17T11:40:05;99865.74;;;14.30;48.73
62592;BME280;48659;41.622;2.276;2023-03-17T11:42:41;99863.41;;;13.87;47.98
62592;BME280;48659;41.622;2.276;2023-03-17T11:45:24;99858.29;;;14.52;46.88
62592;BME280;48659;41.622;2.276;2023-03-17T11:48:07;99861.31;;;13.92;48.51
62592;BME280;48659;41.622;2.276;2023-03-17T11:50:53;99857.01;;;13.59;49.95
62592;BME280;48659;41.622;2.276;2023-03-17T11:53:38;99848.45;;;14.63;46.52
62592;BME280;48659;41.622;2.276;2023-03-17T11:56:15;99853.75;;;13.61;48.97
62592;BME280;48659;41.622;2.276;2023-03-17T11:58:48;99847.18;;;13.45;48.37
62592;BME280;48659;41.622;2.276;2023-03-17T12:01:22;99848.20;;;13.19;48.69
62592;BME280;48659;41.622;2.276;2023-03-17T12:03:53;99831.37;;;14.78;46.76
62592;BME280;48659;41.622;2.276;2023-03-17T12:06:28;99834.22;;;13.51;48.60
62592;BME280;48659;41.622;2.276;2023-03-17T12:08:59;99824.16;;;13.37;48.18
62592;BME280;48659;41.622;2.276;2023-03-17T12:11:31;99819.85;;;12.92;48.73
62592;BME280;48659;41.622;2.276;2023-03-17T12:14:05;99813.79;;;15.14;46.84
62592;BME280;48659;41.622;2.276;2023-03-17T12:16:37;99810.22;;;13.69;47.09
62592;BME280;48659;41.622;2.276;2023-03-17T12:19:17;99809.04;;;15.33;45.66
62592;BME280;48659;41.622;2.276;2023-03-17T12:21:48;99807.70;;;15.47;44.71
62592;BME280;48659;41.622;2.276;2023-03-17T12:24:20;99801.55;;;14.45;45.13
62592;BME280;48659;41.622;2.276;2023-03-17T12:26:54;99791.15;;;15.81;43.94
62592;BME280;48659;41.622;2.276;2023-03-17T12:29:31;99778.11;;;14.25;46.35
62592;BME280;48659;41.622;2.276;2023-03-17T12:32:04;99771.10;;;14.76;46.57
62592;BME280;48659;41.622;2.276;2023-03-17T12:34:39;99763.49;;;13.80;46.63
62592;BME280;48659;41.622;2.276;2023-03-17T12:37:18;99763.56;;;15.08;46.38
62592;BME280;48659;41.622;2.276;2023-03-17T12:39:51;99759.08;;;14.73;46.88
62592;BME280;48659;41.622;2.276;2023-03-17T12:42:32;99761.40;;;13.18;50.17
62592;BME280;48659;41.622;2.276;2023-03-17T12:45:23;99747.21;;;14.52;48.56
62592;BME280;48659;41.622;2.276;2023-03-17T12:48:07;99746.00;;;14.04;49.30
62592;BME280;48659;41.622;2.276;2023-03-17T12:50:58;99733.61;;;14.01;48.74
62592;BME280;48659;41.622;2.276;2023-03-17T12:53:32;99737.30;;;13.37;48.83
62592;BME280;48659;41.622;2.276;2023-03-17T12:56:06;99742.00;;;13.40;50.01
62592;BME280;48659;41.622;2.276;2023-03-17T12:58:45;99740.80;;;13.43;49.00
62592;BME280;48659;41.622;2.276;2023-03-17T13:01:28;99736.40;;;14.09;47.32
62592;BME280;48659;41.622;2.276;2023-03-17T13:04:02;99730.11;;;13.74;48.51
62592;BME280;48659;41.622;2.276;2023-03-17T13:06:38;99725.66;;;13.57;46.95
62592;BME280;48659;41.622;2.276;2023-03-17T13:11:25;99733.52;;;13.27;49.57
62592;BME280;48659;41.622;2.276;2023-03-17T13:14:05;99734.11;;;12.95;51.80
62592;BME280;48659;41.622;2.276;2023-03-17T13:16:34;99732.66;;;13.35;50.52
62592;BME280;48659;41.622;2.276;2023-03-17T13:19:22;99733.74;;;13.56;51.02
62592;BME280;48659;41.622;2.276;2023-03-17T13:24:43;99734.55;;;12.95;49.03
62592;BME280;48659;41.622;2.276;2023-03-17T13:27:49;99728.31;;;13.40;48.00
62592;BME280;48659;41.622;2.276;2023-03-17T13:31:34;99718.04;;;12.80;48.41
62592;BME280;48659;41.622;2.276;2023-03-17T13:34:20;99709.47;;;13.87;48.61